Shorewood Hills, Wisconsin
Current Conditions -  °F | °C
As of 7:15 AM on Thursday 23 Oct 2014 (Local Time) from KC29 Reporting Station
Scattered Clouds Scattered Clouds  
Wind Chill: 38°   Ceiling: Unl
Heat Index: 42°   Visibility: 10mi
Dew Point: 35°   Wind: 6mph
Humidity: 76%   Direction: 170°S
Pressure: 30.16"   Gusts: NA
Location:  43.0738°N, 89.4589°W
Report Text: KC29 231215Z AUTO 17005KT 10SM SCT070 06/02 A3016 RMK AO1 T00550016
Loading
Personal Weather Stations






























Interactive Weather Map
Tropical Storm Tracking
New forecast layout! Learn more

10-Day Weather Forecast

Advertisements
Track Severe Weather on mobile